sensor_id;sensor_type;location;lat;lon;timestamp;P1;durP1;ratioP1;P2;durP2;ratioP2
25657;SDS011;13517;59.320;18.042;2022-12-20T00:01:19;35.67;;;15.90;;
25657;SDS011;13517;59.320;18.042;2022-12-20T00:03:50;31.45;;;16.48;;
25657;SDS011;13517;59.320;18.042;2022-12-20T00:06:18;34.13;;;17.25;;
25657;SDS011;13517;59.320;18.042;2022-12-20T00:08:43;37.47;;;18.17;;
25657;SDS011;13517;59.320;18.042;2022-12-20T00:11:09;29.15;;;16.95;;
25657;SDS011;13517;59.320;18.042;2022-12-20T00:13:35;32.47;;;17.30;;
25657;SDS011;13517;59.320;18.042;2022-12-20T00:16:12;33.00;;;17.20;;
25657;SDS011;13517;59.320;18.042;2022-12-20T00:18:39;39.88;;;18.27;;
25657;SDS011;13517;59.320;18.042;2022-12-20T00:21:06;36.90;;;18.60;;
25657;SDS011;13517;59.320;18.042;2022-12-20T00:23:34;37.05;;;17.80;;
25657;SDS011;13517;59.320;18.042;2022-12-20T00:26:01;34.55;;;18.30;;
25657;SDS011;13517;59.320;18.042;2022-12-20T00:28:29;37.45;;;17.50;;
25657;SDS011;13517;59.320;18.042;2022-12-20T00:30:55;36.50;;;18.05;;
25657;SDS011;13517;59.320;18.042;2022-12-20T00:33:20;36.00;;;18.67;;
25657;SDS011;13517;59.320;18.042;2022-12-20T00:35:46;39.05;;;20.08;;
25657;SDS011;13517;59.320;18.042;2022-12-20T00:38:11;40.85;;;20.67;;
25657;SDS011;13517;59.320;18.042;2022-12-20T00:40:37;42.92;;;20.52;;
25657;SDS011;13517;59.320;18.042;2022-12-20T00:43:02;38.38;;;19.70;;
25657;SDS011;13517;59.320;18.042;2022-12-20T00:45:28;36.22;;;19.67;;
25657;SDS011;13517;59.320;18.042;2022-12-20T00:47:53;38.72;;;20.08;;
25657;SDS011;13517;59.320;18.042;2022-12-20T00:50:19;43.38;;;19.63;;
25657;SDS011;13517;59.320;18.042;2022-12-20T00:52:44;41.38;;;21.17;;
25657;SDS011;13517;59.320;18.042;2022-12-20T00:55:09;34.63;;;19.55;;
25657;SDS011;13517;59.320;18.042;2022-12-20T00:57:35;41.10;;;20.63;;
25657;SDS011;13517;59.320;18.042;2022-12-20T01:00:00;38.45;;;20.63;;
25657;SDS011;13517;59.320;18.042;2022-12-20T01:02:26;40.00;;;20.52;;
25657;SDS011;13517;59.320;18.042;2022-12-20T01:04:51;40.25;;;20.63;;
25657;SDS011;13517;59.320;18.042;2022-12-20T01:07:16;42.08;;;20.05;;
25657;SDS011;13517;59.320;18.042;2022-12-20T01:09:43;43.25;;;21.98;;
25657;SDS011;13517;59.320;18.042;2022-12-20T01:12:08;43.72;;;21.77;;
25657;SDS011;13517;59.320;18.042;2022-12-20T01:14:35;39.53;;;20.70;;
25657;SDS011;13517;59.320;18.042;2022-12-20T01:17:00;42.13;;;21.45;;
25657;SDS011;13517;59.320;18.042;2022-12-20T01:19:26;46.28;;;22.58;;
25657;SDS011;13517;59.320;18.042;2022-12-20T01:21:51;43.15;;;21.35;;
25657;SDS011;13517;59.320;18.042;2022-12-20T01:24:17;46.15;;;20.95;;
25657;SDS011;13517;59.320;18.042;2022-12-20T01:26:44;38.90;;;21.63;;
25657;SDS011;13517;59.320;18.042;2022-12-20T01:29:10;43.00;;;23.85;;
25657;SDS011;13517;59.320;18.042;2022-12-20T01:31:35;47.88;;;22.48;;
25657;SDS011;13517;59.320;18.042;2022-12-20T01:34:01;42.20;;;22.48;;
25657;SDS011;13517;59.320;18.042;2022-12-20T01:36:28;41.40;;;21.48;;
25657;SDS011;13517;59.320;18.042;2022-12-20T01:39:00;41.65;;;22.02;;
25657;SDS011;13517;59.320;18.042;2022-12-20T01:41:27;41.50;;;21.65;;
25657;SDS011;13517;59.320;18.042;2022-12-20T01:43:56;45.55;;;22.40;;
25657;SDS011;13517;59.320;18.042;2022-12-20T01:46:24;47.97;;;23.08;;
25657;SDS011;13517;59.320;18.042;2022-12-20T01:48:52;45.05;;;22.25;;
25657;SDS011;13517;59.320;18.042;2022-12-20T01:51:20;47.88;;;22.77;;
25657;SDS011;13517;59.320;18.042;2022-12-20T01:53:48;44.75;;;22.25;;
25657;SDS011;13517;59.320;18.042;2022-12-20T01:56:19;44.45;;;21.98;;
25657;SDS011;13517;59.320;18.042;2022-12-20T01:58:44;51.35;;;24.67;;
25657;SDS011;13517;59.320;18.042;2022-12-20T02:01:13;50.70;;;23.55;;
25657;SDS011;13517;59.320;18.042;2022-12-20T02:03:39;48.17;;;22.50;;
25657;SDS011;13517;59.320;18.042;2022-12-20T02:06:17;46.35;;;23.10;;
25657;SDS011;13517;59.320;18.042;2022-12-20T02:08:46;49.03;;;24.15;;
25657;SDS011;13517;59.320;18.042;2022-12-20T02:11:22;44.42;;;22.73;;
25657;SDS011;13517;59.320;18.042;2022-12-20T02:22:26;57.42;;;26.48;;
25657;SDS011;13517;59.320;18.042;2022-12-20T02:30:57;56.38;;;25.95;;
25657;SDS011;13517;59.320;18.042;2022-12-20T02:33:27;49.20;;;24.48;;
25657;SDS011;13517;59.320;18.042;2022-12-20T02:35:53;52.20;;;25.10;;
25657;SDS011;13517;59.320;18.042;2022-12-20T02:40:59;50.72;;;24.65;;
25657;SDS011;13517;59.320;18.042;2022-12-20T02:43:31;51.78;;;25.02;;
25657;SDS011;13517;59.320;18.042;2022-12-20T02:46:16;50.95;;;24.58;;
25657;SDS011;13517;59.320;18.042;2022-12-20T02:48:45;53.88;;;24.20;;
25657;SDS011;13517;59.320;18.042;2022-12-20T02:51:12;43.58;;;22.23;;
25657;SDS011;13517;59.320;18.042;2022-12-20T02:53:41;51.35;;;24.50;;
25657;SDS011;13517;59.320;18.042;2022-12-20T02:58:49;49.88;;;24.10;;
25657;SDS011;13517;59.320;18.042;2022-12-20T03:01:38;47.67;;;22.90;;
25657;SDS011;13517;59.320;18.042;2022-12-20T03:04:09;50.55;;;22.73;;
25657;SDS011;13517;59.320;18.042;2022-12-20T03:06:37;49.40;;;23.20;;
25657;SDS011;13517;59.320;18.042;2022-12-20T03:09:03;47.08;;;23.23;;
25657;SDS011;13517;59.320;18.042;2022-12-20T03:11:28;47.88;;;23.90;;
25657;SDS011;13517;59.320;18.042;2022-12-20T03:13:54;51.92;;;23.83;;
25657;SDS011;13517;59.320;18.042;2022-12-20T03:16:19;43.80;;;23.48;;
25657;SDS011;13517;59.320;18.042;2022-12-20T03:18:45;48.72;;;23.08;;
25657;SDS011;13517;59.320;18.042;2022-12-20T03:21:10;52.15;;;23.58;;
25657;SDS011;13517;59.320;18.042;2022-12-20T03:23:36;53.00;;;24.58;;
25657;SDS011;13517;59.320;18.042;2022-12-20T03:26:01;54.80;;;24.63;;
25657;SDS011;13517;59.320;18.042;2022-12-20T03:28:27;50.53;;;24.52;;
25657;SDS011;13517;59.320;18.042;2022-12-20T03:30:52;51.35;;;23.05;;
25657;SDS011;13517;59.320;18.042;2022-12-20T03:33:17;55.00;;;23.75;;
25657;SDS011;13517;59.320;18.042;2022-12-20T03:35:43;48.90;;;23.55;;
25657;SDS011;13517;59.320;18.042;2022-12-20T03:38:08;48.15;;;23.25;;
25657;SDS011;13517;59.320;18.042;2022-12-20T03:40:34;48.10;;;24.80;;
25657;SDS011;13517;59.320;18.042;2022-12-20T03:42:59;50.47;;;23.83;;
25657;SDS011;13517;59.320;18.042;2022-12-20T03:45:24;47.38;;;23.88;;
25657;SDS011;13517;59.320;18.042;2022-12-20T03:47:50;52.25;;;24.33;;
25657;SDS011;13517;59.320;18.042;2022-12-20T03:50:15;50.55;;;24.42;;
25657;SDS011;13517;59.320;18.042;2022-12-20T03:52:41;59.95;;;25.17;;
25657;SDS011;13517;59.320;18.042;2022-12-20T03:55:06;50.35;;;23.45;;
25657;SDS011;13517;59.320;18.042;2022-12-20T03:57:33;54.75;;;24.45;;
25657;SDS011;13517;59.320;18.042;2022-12-20T03:59:59;53.45;;;24.75;;
25657;SDS011;13517;59.320;18.042;2022-12-20T04:02:24;53.97;;;23.83;;
25657;SDS011;13517;59.320;18.042;2022-12-20T04:04:50;41.47;;;22.15;;
25657;SDS011;13517;59.320;18.042;2022-12-20T04:07:15;46.10;;;22.00;;
25657;SDS011;13517;59.320;18.042;2022-12-20T04:09:41;52.90;;;24.27;;
25657;SDS011;13517;59.320;18.042;2022-12-20T04:12:06;49.25;;;23.60;;
25657;SDS011;13517;59.320;18.042;2022-12-20T04:14:32;50.08;;;24.00;;
25657;SDS011;13517;59.320;18.042;2022-12-20T04:16:57;49.45;;;23.42;;
25657;SDS011;13517;59.320;18.042;2022-12-20T04:19:23;53.55;;;22.55;;
25657;SDS011;13517;59.320;18.042;2022-12-20T04:21:48;54.33;;;24.00;;
25657;SDS011;13517;59.320;18.042;2022-12-20T04:24:14;54.35;;;23.05;;
25657;SDS011;13517;59.320;18.042;2022-12-20T04:26:39;59.42;;;23.73;;
25657;SDS011;13517;59.320;18.042;2022-12-20T04:29:05;49.72;;;23.42;;
25657;SDS011;13517;59.320;18.042;2022-12-20T04:31:31;54.58;;;25.27;;
25657;SDS011;13517;59.320;18.042;2022-12-20T04:33:56;43.45;;;22.38;;
25657;SDS011;13517;59.320;18.042;2022-12-20T04:36:22;53.40;;;24.10;;
25657;SDS011;13517;59.320;18.042;2022-12-20T04:38:47;50.50;;;22.10;;
25657;SDS011;13517;59.320;18.042;2022-12-20T04:41:13;55.45;;;23.52;;
25657;SDS011;13517;59.320;18.042;2022-12-20T04:43:47;52.97;;;24.05;;
25657;SDS011;13517;59.320;18.042;2022-12-20T04:46:14;50.67;;;23.38;;
25657;SDS011;13517;59.320;18.042;2022-12-20T04:48:39;58.35;;;24.83;;
25657;SDS011;13517;59.320;18.042;2022-12-20T04:51:05;59.65;;;24.75;;
25657;SDS011;13517;59.320;18.042;2022-12-20T04:53:30;52.42;;;24.60;;
25657;SDS011;13517;59.320;18.042;2022-12-20T04:58:40;49.47;;;23.33;;
25657;SDS011;13517;59.320;18.042;2022-12-20T05:01:06;51.42;;;24.33;;
25657;SDS011;13517;59.320;18.042;2022-12-20T05:03:32;59.47;;;25.40;;
25657;SDS011;13517;59.320;18.042;2022-12-20T05:05:57;54.97;;;23.70;;
25657;SDS011;13517;59.320;18.042;2022-12-20T05:08:23;55.70;;;23.90;;
25657;SDS011;13517;59.320;18.042;2022-12-20T05:10:48;49.63;;;23.83;;
25657;SDS011;13517;59.320;18.042;2022-12-20T05:13:14;57.85;;;23.00;;
25657;SDS011;13517;59.320;18.042;2022-12-20T05:15:40;59.92;;;23.35;;
25657;SDS011;13517;59.320;18.042;2022-12-20T05:18:06;47.72;;;21.65;;
25657;SDS011;13517;59.320;18.042;2022-12-20T05:20:31;54.75;;;23.40;;
25657;SDS011;13517;59.320;18.042;2022-12-20T05:22:57;47.60;;;21.20;;
25657;SDS011;13517;59.320;18.042;2022-12-20T05:25:45;51.72;;;22.75;;
25657;SDS011;13517;59.320;18.042;2022-12-20T05:28:31;45.10;;;20.33;;
25657;SDS011;13517;59.320;18.042;2022-12-20T05:30:57;53.97;;;21.88;;
25657;SDS011;13517;59.320;18.042;2022-12-20T05:33:23;47.83;;;20.13;;
25657;SDS011;13517;59.320;18.042;2022-12-20T05:35:48;48.67;;;19.50;;
25657;SDS011;13517;59.320;18.042;2022-12-20T05:38:14;44.55;;;19.15;;
25657;SDS011;13517;59.320;18.042;2022-12-20T05:40:40;40.70;;;19.33;;
25657;SDS011;13517;59.320;18.042;2022-12-20T05:43:05;39.50;;;18.48;;
25657;SDS011;13517;59.320;18.042;2022-12-20T05:45:31;45.20;;;17.88;;
25657;SDS011;13517;59.320;18.042;2022-12-20T05:47:57;36.63;;;17.55;;
25657;SDS011;13517;59.320;18.042;2022-12-20T05:50:23;41.55;;;17.88;;
25657;SDS011;13517;59.320;18.042;2022-12-20T05:52:49;38.22;;;17.08;;
25657;SDS011;13517;59.320;18.042;2022-12-20T05:55:14;36.08;;;16.65;;
25657;SDS011;13517;59.320;18.042;2022-12-20T05:57:40;43.85;;;18.10;;
25657;SDS011;13517;59.320;18.042;2022-12-20T06:00:05;35.03;;;15.57;;
25657;SDS011;13517;59.320;18.042;2022-12-20T06:02:32;31.33;;;15.30;;
25657;SDS011;13517;59.320;18.042;2022-12-20T06:04:57;34.58;;;15.90;;
25657;SDS011;13517;59.320;18.042;2022-12-20T06:07:23;37.15;;;15.10;;
25657;SDS011;13517;59.320;18.042;2022-12-20T06:09:49;36.78;;;15.30;;
25657;SDS011;13517;59.320;18.042;2022-12-20T06:12:14;33.72;;;14.30;;
25657;SDS011;13517;59.320;18.042;2022-12-20T06:14:39;35.22;;;14.77;;
25657;SDS011;13517;59.320;18.042;2022-12-20T06:17:05;32.85;;;14.48;;
25657;SDS011;13517;59.320;18.042;2022-12-20T06:19:30;26.15;;;13.65;;
25657;SDS011;13517;59.320;18.042;2022-12-20T06:21:56;28.30;;;14.05;;
25657;SDS011;13517;59.320;18.042;2022-12-20T06:24:21;23.20;;;12.98;;
25657;SDS011;13517;59.320;18.042;2022-12-20T06:26:49;29.17;;;13.93;;
25657;SDS011;13517;59.320;18.042;2022-12-20T06:29:15;34.60;;;14.88;;
25657;SDS011;13517;59.320;18.042;2022-12-20T06:31:42;26.50;;;13.43;;
25657;SDS011;13517;59.320;18.042;2022-12-20T06:34:07;23.20;;;12.55;;
25657;SDS011;13517;59.320;18.042;2022-12-20T06:36:33;22.45;;;12.70;;
25657;SDS011;13517;59.320;18.042;2022-12-20T06:38:58;28.20;;;13.30;;
25657;SDS011;13517;59.320;18.042;2022-12-20T06:41:24;26.15;;;13.52;;
25657;SDS011;13517;59.320;18.042;2022-12-20T06:43:49;28.05;;;14.32;;
25657;SDS011;13517;59.320;18.042;2022-12-20T06:46:15;28.27;;;14.05;;
25657;SDS011;13517;59.320;18.042;2022-12-20T06:48:40;28.30;;;13.07;;
25657;SDS011;13517;59.320;18.042;2022-12-20T06:51:05;31.08;;;14.05;;
25657;SDS011;13517;59.320;18.042;2022-12-20T06:53:31;25.35;;;13.70;;
25657;SDS011;13517;59.320;18.042;2022-12-20T06:55:56;29.30;;;13.80;;
25657;SDS011;13517;59.320;18.042;2022-12-20T06:58:21;27.58;;;12.95;;
25657;SDS011;13517;59.320;18.042;2022-12-20T07:00:47;22.92;;;12.15;;
25657;SDS011;13517;59.320;18.042;2022-12-20T07:03:13;27.85;;;14.00;;
25657;SDS011;13517;59.320;18.042;2022-12-20T07:05:39;27.40;;;13.27;;
25657;SDS011;13517;59.320;18.042;2022-12-20T07:08:05;23.58;;;12.85;;
25657;SDS011;13517;59.320;18.042;2022-12-20T07:10:32;25.50;;;12.50;;
25657;SDS011;13517;59.320;18.042;2022-12-20T07:12:59;24.75;;;11.63;;
25657;SDS011;13517;59.320;18.042;2022-12-20T07:15:25;24.77;;;11.88;;
25657;SDS011;13517;59.320;18.042;2022-12-20T07:17:50;25.83;;;11.07;;
25657;SDS011;13517;59.320;18.042;2022-12-20T07:20:16;20.20;;;12.07;;
25657;SDS011;13517;59.320;18.042;2022-12-20T07:22:41;19.13;;;9.63;;
25657;SDS011;13517;59.320;18.042;2022-12-20T07:25:07;21.20;;;10.88;;
25657;SDS011;13517;59.320;18.042;2022-12-20T07:27:33;22.15;;;10.95;;
25657;SDS011;13517;59.320;18.042;2022-12-20T07:29:58;21.00;;;11.57;;
25657;SDS011;13517;59.320;18.042;2022-12-20T07:32:24;24.02;;;12.18;;
25657;SDS011;13517;59.320;18.042;2022-12-20T07:34:49;24.65;;;11.15;;
25657;SDS011;13517;59.320;18.042;2022-12-20T07:37:15;25.42;;;11.90;;
25657;SDS011;13517;59.320;18.042;2022-12-20T07:39:40;23.65;;;12.27;;
25657;SDS011;13517;59.320;18.042;2022-12-20T07:42:06;25.00;;;11.45;;
25657;SDS011;13517;59.320;18.042;2022-12-20T07:44:33;23.83;;;10.95;;
25657;SDS011;13517;59.320;18.042;2022-12-20T07:46:58;19.20;;;10.73;;
25657;SDS011;13517;59.320;18.042;2022-12-20T07:49:24;26.00;;;11.98;;
25657;SDS011;13517;59.320;18.042;2022-12-20T07:51:50;28.85;;;10.40;;
25657;SDS011;13517;59.320;18.042;2022-12-20T07:54:25;22.33;;;10.70;;
25657;SDS011;13517;59.320;18.042;2022-12-20T07:56:57;19.17;;;10.60;;
25657;SDS011;13517;59.320;18.042;2022-12-20T07:59:28;19.15;;;10.52;;
25657;SDS011;13517;59.320;18.042;2022-12-20T08:02:10;19.48;;;9.80;;
25657;SDS011;13517;59.320;18.042;2022-12-20T08:04:39;17.45;;;10.18;;
25657;SDS011;13517;59.320;18.042;2022-12-20T08:07:05;16.25;;;10.10;;
25657;SDS011;13517;59.320;18.042;2022-12-20T08:09:33;18.08;;;9.55;;
25657;SDS011;13517;59.320;18.042;2022-12-20T08:12:02;19.42;;;10.40;;
25657;SDS011;13517;59.320;18.042;2022-12-20T08:14:28;24.05;;;11.00;;
25657;SDS011;13517;59.320;18.042;2022-12-20T08:16:54;21.77;;;10.45;;
25657;SDS011;13517;59.320;18.042;2022-12-20T08:19:19;21.17;;;9.50;;
25657;SDS011;13517;59.320;18.042;2022-12-20T08:21:44;17.67;;;10.00;;
25657;SDS011;13517;59.320;18.042;2022-12-20T08:24:10;20.25;;;10.35;;
25657;SDS011;13517;59.320;18.042;2022-12-20T08:26:36;31.55;;;10.75;;
25657;SDS011;13517;59.320;18.042;2022-12-20T08:29:05;21.15;;;10.02;;
25657;SDS011;13517;59.320;18.042;2022-12-20T08:31:31;17.52;;;10.05;;
25657;SDS011;13517;59.320;18.042;2022-12-20T08:34:01;23.63;;;10.70;;
25657;SDS011;13517;59.320;18.042;2022-12-20T08:36:27;17.33;;;9.50;;
25657;SDS011;13517;59.320;18.042;2022-12-20T08:38:52;24.60;;;10.70;;
25657;SDS011;13517;59.320;18.042;2022-12-20T08:41:17;17.23;;;9.40;;
25657;SDS011;13517;59.320;18.042;2022-12-20T08:43:43;16.20;;;9.45;;
25657;SDS011;13517;59.320;18.042;2022-12-20T08:46:09;19.33;;;9.30;;
25657;SDS011;13517;59.320;18.042;2022-12-20T08:48:36;22.88;;;10.63;;
25657;SDS011;13517;59.320;18.042;2022-12-20T08:51:06;19.20;;;9.85;;
25657;SDS011;13517;59.320;18.042;2022-12-20T08:53:33;17.00;;;9.50;;
25657;SDS011;13517;59.320;18.042;2022-12-20T08:56:09;20.55;;;10.38;;
25657;SDS011;13517;59.320;18.042;2022-12-20T08:58:39;18.15;;;10.07;;
25657;SDS011;13517;59.320;18.042;2022-12-20T09:01:06;19.77;;;10.32;;
25657;SDS011;13517;59.320;18.042;2022-12-20T09:03:35;19.70;;;9.45;;
25657;SDS011;13517;59.320;18.042;2022-12-20T09:06:05;19.50;;;10.18;;
25657;SDS011;13517;59.320;18.042;2022-12-20T09:08:33;12.43;;;8.48;;
25657;SDS011;13517;59.320;18.042;2022-12-20T09:11:06;23.25;;;10.05;;
25657;SDS011;13517;59.320;18.042;2022-12-20T09:13:34;17.92;;;8.73;;
25657;SDS011;13517;59.320;18.042;2022-12-20T09:16:01;16.70;;;9.32;;
25657;SDS011;13517;59.320;18.042;2022-12-20T09:18:27;16.00;;;8.40;;
25657;SDS011;13517;59.320;18.042;2022-12-20T09:20:52;16.15;;;9.02;;
25657;SDS011;13517;59.320;18.042;2022-12-20T09:23:18;12.43;;;8.02;;
25657;SDS011;13517;59.320;18.042;2022-12-20T09:25:43;17.80;;;8.50;;
25657;SDS011;13517;59.320;18.042;2022-12-20T09:28:09;12.60;;;8.43;;
25657;SDS011;13517;59.320;18.042;2022-12-20T09:30:35;17.40;;;9.40;;
25657;SDS011;13517;59.320;18.042;2022-12-20T09:33:00;16.75;;;8.60;;
25657;SDS011;13517;59.320;18.042;2022-12-20T09:35:26;21.63;;;9.30;;
25657;SDS011;13517;59.320;18.042;2022-12-20T09:37:51;18.77;;;9.02;;
25657;SDS011;13517;59.320;18.042;2022-12-20T09:40:17;19.90;;;9.05;;
25657;SDS011;13517;59.320;18.042;2022-12-20T09:42:45;23.73;;;10.68;;
25657;SDS011;13517;59.320;18.042;2022-12-20T09:45:15;20.02;;;9.68;;
25657;SDS011;13517;59.320;18.042;2022-12-20T09:47:48;16.17;;;9.05;;
25657;SDS011;13517;59.320;18.042;2022-12-20T09:50:14;22.25;;;10.10;;
25657;SDS011;13517;59.320;18.042;2022-12-20T09:52:50;15.68;;;9.00;;
25657;SDS011;13517;59.320;18.042;2022-12-20T09:55:23;16.35;;;10.00;;
25657;SDS011;13517;59.320;18.042;2022-12-20T10:00:53;17.60;;;8.35;;
25657;SDS011;13517;59.320;18.042;2022-12-20T10:03:20;19.15;;;8.98;;
25657;SDS011;13517;59.320;18.042;2022-12-20T10:05:53;22.08;;;9.23;;
25657;SDS011;13517;59.320;18.042;2022-12-20T10:10:58;19.08;;;9.38;;
25657;SDS011;13517;59.320;18.042;2022-12-20T10:13:49;21.27;;;9.15;;
25657;SDS011;13517;59.320;18.042;2022-12-20T10:16:38;20.95;;;8.93;;
25657;SDS011;13517;59.320;18.042;2022-12-20T10:24:44;17.13;;;9.00;;
25657;SDS011;13517;59.320;18.042;2022-12-20T10:27:24;25.98;;;9.98;;
25657;SDS011;13517;59.320;18.042;2022-12-20T10:29:50;18.30;;;9.52;;
25657;SDS011;13517;59.320;18.042;2022-12-20T10:32:17;17.92;;;9.63;;
25657;SDS011;13517;59.320;18.042;2022-12-20T10:34:56;18.67;;;9.70;;
25657;SDS011;13517;59.320;18.042;2022-12-20T10:37:36;23.42;;;10.05;;
25657;SDS011;13517;59.320;18.042;2022-12-20T10:40:02;20.80;;;10.73;;
25657;SDS011;13517;59.320;18.042;2022-12-20T10:44:53;19.52;;;10.18;;
25657;SDS011;13517;59.320;18.042;2022-12-20T10:47:34;20.15;;;9.57;;
25657;SDS011;13517;59.320;18.042;2022-12-20T10:50:16;24.55;;;10.75;;
25657;SDS011;13517;59.320;18.042;2022-12-20T10:52:44;28.42;;;9.65;;
25657;SDS011;13517;59.320;18.042;2022-12-20T10:55:36;18.55;;;9.32;;
25657;SDS011;13517;59.320;18.042;2022-12-20T10:58:13;20.35;;;9.43;;
25657;SDS011;13517;59.320;18.042;2022-12-20T11:01:05;15.38;;;8.70;;
25657;SDS011;13517;59.320;18.042;2022-12-20T11:03:58;20.48;;;8.80;;
25657;SDS011;13517;59.320;18.042;2022-12-20T11:06:44;16.55;;;8.25;;
25657;SDS011;13517;59.320;18.042;2022-12-20T11:11:57;14.85;;;8.60;;
25657;SDS011;13517;59.320;18.042;2022-12-20T11:14:23;15.18;;;7.80;;
25657;SDS011;13517;59.320;18.042;2022-12-20T11:16:49;13.85;;;8.32;;
25657;SDS011;13517;59.320;18.042;2022-12-20T11:25:02;14.15;;;9.07;;
25657;SDS011;13517;59.320;18.042;2022-12-20T11:27:34;21.63;;;9.68;;
25657;SDS011;13517;59.320;18.042;2022-12-20T11:30:19;15.52;;;10.18;;
25657;SDS011;13517;59.320;18.042;2022-12-20T11:35:31;15.60;;;9.73;;
25657;SDS011;13517;59.320;18.042;2022-12-20T11:41:15;18.10;;;8.50;;
25657;SDS011;13517;59.320;18.042;2022-12-20T11:51:44;15.48;;;9.60;;
25657;SDS011;13517;59.320;18.042;2022-12-20T11:54:13;16.55;;;9.25;;
25657;SDS011;13517;59.320;18.042;2022-12-20T11:56:49;14.20;;;9.43;;
25657;SDS011;13517;59.320;18.042;2022-12-20T12:04:55;20.15;;;9.32;;
25657;SDS011;13517;59.320;18.042;2022-12-20T12:07:42;16.73;;;9.73;;
25657;SDS011;13517;59.320;18.042;2022-12-20T12:10:18;19.13;;;10.50;;
25657;SDS011;13517;59.320;18.042;2022-12-20T12:12:57;19.75;;;9.35;;
25657;SDS011;13517;59.320;18.042;2022-12-20T12:15:30;26.45;;;10.70;;
25657;SDS011;13517;59.320;18.042;2022-12-20T12:18:20;18.05;;;9.98;;
25657;SDS011;13517;59.320;18.042;2022-12-20T12:20:50;17.75;;;9.50;;
25657;SDS011;13517;59.320;18.042;2022-12-20T12:25:50;22.10;;;9.82;;
25657;SDS011;13517;59.320;18.042;2022-12-20T12:28:16;17.48;;;9.38;;
25657;SDS011;13517;59.320;18.042;2022-12-20T12:30:45;15.90;;;9.32;;
25657;SDS011;13517;59.320;18.042;2022-12-20T12:33:22;17.20;;;9.18;;
25657;SDS011;13517;59.320;18.042;2022-12-20T12:36:11;14.07;;;8.57;;
25657;SDS011;13517;59.320;18.042;2022-12-20T12:41:48;15.35;;;8.73;;
25657;SDS011;13517;59.320;18.042;2022-12-20T12:44:31;13.32;;;8.35;;
25657;SDS011;13517;59.320;18.042;2022-12-20T12:47:11;15.10;;;8.90;;
25657;SDS011;13517;59.320;18.042;2022-12-20T12:49:46;17.88;;;9.13;;
25657;SDS011;13517;59.320;18.042;2022-12-20T12:58:04;15.02;;;9.00;;
25657;SDS011;13517;59.320;18.042;2022-12-20T13:09:09;22.35;;;8.90;;
25657;SDS011;13517;59.320;18.042;2022-12-20T13:11:42;17.05;;;9.52;;
25657;SDS011;13517;59.320;18.042;2022-12-20T13:16:43;14.20;;;8.27;;
25657;SDS011;13517;59.320;18.042;2022-12-20T13:19:31;21.70;;;9.80;;
25657;SDS011;13517;59.320;18.042;2022-12-20T13:27:16;14.88;;;8.82;;
25657;SDS011;13517;59.320;18.042;2022-12-20T13:51:14;19.55;;;10.68;;
25657;SDS011;13517;59.320;18.042;2022-12-20T13:53:53;27.48;;;12.57;;
25657;SDS011;13517;59.320;18.042;2022-12-20T13:58:54;20.33;;;11.38;;
25657;SDS011;13517;59.320;18.042;2022-12-20T14:01:22;16.80;;;9.50;;
25657;SDS011;13517;59.320;18.042;2022-12-20T14:03:49;16.67;;;8.80;;
25657;SDS011;13517;59.320;18.042;2022-12-20T14:06:17;18.02;;;9.35;;
25657;SDS011;13517;59.320;18.042;2022-12-20T14:08:49;17.45;;;9.02;;
25657;SDS011;13517;59.320;18.042;2022-12-20T14:13:50;15.60;;;9.50;;
25657;SDS011;13517;59.320;18.042;2022-12-20T14:16:18;17.42;;;8.95;;
25657;SDS011;13517;59.320;18.042;2022-12-20T14:18:48;18.65;;;9.23;;
25657;SDS011;13517;59.320;18.042;2022-12-20T14:21:14;19.98;;;10.48;;
25657;SDS011;13517;59.320;18.042;2022-12-20T14:23:43;20.73;;;10.63;;
25657;SDS011;13517;59.320;18.042;2022-12-20T14:26:12;16.95;;;9.50;;
25657;SDS011;13517;59.320;18.042;2022-12-20T14:28:49;16.25;;;8.18;;
25657;SDS011;13517;59.320;18.042;2022-12-20T14:31:21;16.92;;;8.30;;
25657;SDS011;13517;59.320;18.042;2022-12-20T14:33:50;17.10;;;9.20;;
25657;SDS011;13517;59.320;18.042;2022-12-20T14:36:26;13.93;;;9.38;;
25657;SDS011;13517;59.320;18.042;2022-12-20T14:38:51;16.70;;;8.77;;
25657;SDS011;13517;59.320;18.042;2022-12-20T14:41:37;15.15;;;8.25;;
25657;SDS011;13517;59.320;18.042;2022-12-20T14:44:16;19.88;;;11.35;;
25657;SDS011;13517;59.320;18.042;2022-12-20T14:46:46;15.48;;;9.43;;
25657;SDS011;13517;59.320;18.042;2022-12-20T14:49:26;18.58;;;9.80;;
25657;SDS011;13517;59.320;18.042;2022-12-20T14:54:39;18.15;;;10.07;;
25657;SDS011;13517;59.320;18.042;2022-12-20T14:57:31;21.50;;;9.65;;
25657;SDS011;13517;59.320;18.042;2022-12-20T15:00:11;22.90;;;11.15;;
25657;SDS011;13517;59.320;18.042;2022-12-20T15:10:51;27.08;;;11.73;;
25657;SDS011;13517;59.320;18.042;2022-12-20T15:13:26;25.70;;;10.52;;
25657;SDS011;13517;59.320;18.042;2022-12-20T15:16:03;32.15;;;12.48;;
25657;SDS011;13517;59.320;18.042;2022-12-20T15:18:38;31.70;;;15.75;;
25657;SDS011;13517;59.320;18.042;2022-12-20T15:21:04;30.55;;;12.00;;
25657;SDS011;13517;59.320;18.042;2022-12-20T15:23:36;24.52;;;11.80;;
25657;SDS011;13517;59.320;18.042;2022-12-20T15:26:14;36.50;;;16.50;;
25657;SDS011;13517;59.320;18.042;2022-12-20T15:28:40;30.90;;;13.07;;
25657;SDS011;13517;59.320;18.042;2022-12-20T15:31:08;35.13;;;14.95;;
25657;SDS011;13517;59.320;18.042;2022-12-20T15:33:36;37.95;;;17.67;;
25657;SDS011;13517;59.320;18.042;2022-12-20T15:36:03;39.25;;;16.00;;
25657;SDS011;13517;59.320;18.042;2022-12-20T15:38:28;32.67;;;16.33;;
25657;SDS011;13517;59.320;18.042;2022-12-20T15:40:55;34.97;;;15.60;;
25657;SDS011;13517;59.320;18.042;2022-12-20T15:43:26;37.90;;;15.57;;
25657;SDS011;13517;59.320;18.042;2022-12-20T15:45:52;31.88;;;14.40;;
25657;SDS011;13517;59.320;18.042;2022-12-20T15:48:19;26.67;;;14.00;;
25657;SDS011;13517;59.320;18.042;2022-12-20T15:50:48;34.60;;;12.63;;
25657;SDS011;13517;59.320;18.042;2022-12-20T15:53:17;33.85;;;13.65;;
25657;SDS011;13517;59.320;18.042;2022-12-20T15:55:48;34.13;;;14.82;;
25657;SDS011;13517;59.320;18.042;2022-12-20T15:58:15;29.30;;;13.50;;
25657;SDS011;13517;59.320;18.042;2022-12-20T16:00:40;34.33;;;13.77;;
25657;SDS011;13517;59.320;18.042;2022-12-20T16:03:17;31.20;;;13.75;;
25657;SDS011;13517;59.320;18.042;2022-12-20T16:05:45;36.13;;;13.40;;
25657;SDS011;13517;59.320;18.042;2022-12-20T16:08:11;29.42;;;12.98;;
25657;SDS011;13517;59.320;18.042;2022-12-20T16:10:36;26.48;;;13.85;;
25657;SDS011;13517;59.320;18.042;2022-12-20T16:13:02;34.92;;;14.02;;
25657;SDS011;13517;59.320;18.042;2022-12-20T16:15:28;31.90;;;13.27;;
25657;SDS011;13517;59.320;18.042;2022-12-20T16:17:53;32.47;;;13.35;;
25657;SDS011;13517;59.320;18.042;2022-12-20T16:20:19;38.78;;;13.50;;
25657;SDS011;13517;59.320;18.042;2022-12-20T16:22:44;34.22;;;14.10;;
25657;SDS011;13517;59.320;18.042;2022-12-20T16:25:31;32.58;;;13.38;;
25657;SDS011;13517;59.320;18.042;2022-12-20T16:27:56;33.72;;;13.73;;
25657;SDS011;13517;59.320;18.042;2022-12-20T16:30:22;35.60;;;14.38;;